Time;durP1;ratioP1;P1;durP2;ratioP2;P2;SDS_P1;SDS_P2;PMS_P1;PMS_P2;Temp;Humidity;BMP_temperature;BMP_pressure;BME280_temperature;BME280_humidity;BME280_pressure;Samples;Min_cycle;Max_cycle;Signal;HPM_P1;HPM_P2
2022/03/04 00:00:21;;;;;;;12.88;6.10;;;-0.10;79.70;;;;;;4183903;28;20028;-73
2022/03/04 00:02:42;;;;;;;12.20;6.35;;;0.00;80.00;;;;;;4185045;28;20467;-73
2022/03/04 00:05:03;;;;;;;13.98;6.53;;;-0.10;79.80;;;;;;4185303;28;20021;-73
2022/03/04 00:07:24;;;;;;;15.77;6.82;;;0.00;79.90;;;;;;4186322;28;20029;-73
2022/03/04 00:09:45;;;;;;;14.30;5.95;;;0.00;79.90;;;;;;4183542;28;20056;-73
2022/03/04 00:12:07;;;;;;;17.80;7.20;;;-0.10;79.80;;;;;;4182112;28;20449;-73
2022/03/04 00:14:28;;;;;;;14.43;6.47;;;-0.10;79.80;;;;;;4188659;28;20024;-73
2022/03/04 00:16:49;;;;;;;14.45;6.57;;;-0.10;79.80;;;;;;4184386;28;20036;-73
2022/03/04 00:19:10;;;;;;;17.45;6.50;;;0.00;79.80;;;;;;4186194;28;20032;-74
2022/03/04 00:21:31;;;;;;;16.58;7.20;;;0.00;79.90;;;;;;4187375;28;20461;-73
2022/03/04 00:23:51;;;;;;;16.40;7.30;;;0.00;80.00;;;;;;4183119;28;20516;-73
2022/03/04 00:26:12;;;;;;;18.65;7.35;;;0.00;80.10;;;;;;4172398;28;20044;-74
2022/03/04 00:28:33;;;;;;;18.50;7.05;;;0.00;80.10;;;;;;4184297;28;20036;-73
2022/03/04 00:30:54;;;;;;;18.00;6.63;;;0.00;80.20;;;;;;4183263;28;20467;-73
2022/03/04 00:33:15;;;;;;;16.73;7.10;;;0.00;80.10;;;;;;4185542;28;20036;-73
2022/03/04 00:35:36;;;;;;;13.70;6.93;;;0.00;80.00;;;;;;4189454;28;20024;-73
2022/03/04 00:37:57;;;;;;;18.85;7.47;;;0.00;79.90;;;;;;4185094;28;20031;-73
2022/03/04 00:40:18;;;;;;;14.50;6.45;;;0.00;79.80;;;;;;4189917;28;20024;-73
2022/03/04 00:42:39;;;;;;;15.45;6.97;;;-0.10;79.70;;;;;;4191530;28;20051;-73
2022/03/04 00:44:59;;;;;;;13.73;6.90;;;-0.10;79.60;;;;;;4186107;28;20040;-73
2022/03/04 00:47:20;;;;;;;14.75;7.03;;;-0.10;79.50;;;;;;4180426;28;20033;-73
2022/03/04 00:49:41;;;;;;;14.50;6.35;;;-0.10;79.60;;;;;;4189056;28;20033;-73
2022/03/04 00:52:02;;;;;;;14.18;6.97;;;-0.10;79.70;;;;;;4179007;28;20033;-73
2022/03/04 00:54:23;;;;;;;15.85;7.60;;;-0.10;79.80;;;;;;4186136;28;20075;-73
2022/03/04 00:56:44;;;;;;;12.23;6.75;;;-0.10;79.90;;;;;;4194702;28;20074;-73
2022/03/04 00:59:05;;;;;;;12.25;6.63;;;-0.10;79.80;;;;;;4186836;28;20504;-73
2022/03/04 01:01:26;;;;;;;11.90;6.32;;;-0.20;79.40;;;;;;4185753;28;20041;-73
2022/03/04 01:03:47;;;;;;;13.88;6.53;;;-0.20;79.10;;;;;;4183846;28;20524;-73
2022/03/04 01:06:08;;;;;;;15.55;7.05;;;-0.30;78.90;;;;;;4187973;28;20049;-73
2022/03/04 01:08:29;;;;;;;12.52;6.13;;;-0.30;78.70;;;;;;4191052;28;20480;-73
2022/03/04 01:10:50;;;;;;;15.18;6.53;;;-0.40;78.70;;;;;;4186998;28;20417;-73
2022/03/04 01:13:11;;;;;;;15.20;6.38;;;-0.40;78.80;;;;;;4184893;28;20078;-73
2022/03/04 01:15:32;;;;;;;16.33;7.00;;;-0.40;78.90;;;;;;4191552;28;20024;-73
2022/03/04 01:17:53;;;;;;;16.33;7.00;;;-0.40;79.10;;;;;;4184652;28;20037;-73
2022/03/04 01:20:14;;;;;;;16.80;6.15;;;-0.40;79.20;;;;;;4185617;28;20693;-74
2022/03/04 01:22:35;;;;;;;15.77;7.00;;;-0.50;79.30;;;;;;4191677;28;20051;-73
2022/03/04 01:24:56;;;;;;;14.70;6.10;;;-0.50;79.50;;;;;;4185852;28;20036;-73
2022/03/04 01:27:16;;;;;;;16.90;6.57;;;-0.50;79.50;;;;;;4192026;28;20028;-72
2022/03/04 01:29:37;;;;;;;14.23;6.90;;;-0.50;79.70;;;;;;4172652;28;20394;-73
2022/03/04 01:31:58;;;;;;;13.95;6.85;;;-0.50;79.70;;;;;;4191847;28;20033;-73
2022/03/04 01:34:19;;;;;;;19.75;7.47;;;-0.50;79.80;;;;;;4176685;28;20113;-73
2022/03/04 01:36:40;;;;;;;18.17;7.28;;;-0.50;79.80;;;;;;4187445;28;20088;-73
2022/03/04 01:39:01;;;;;;;18.75;7.43;;;-0.60;79.80;;;;;;4188128;28;20040;-73
2022/03/04 01:41:22;;;;;;;19.48;7.90;;;-0.60;79.80;;;;;;4186092;28;20570;-73
2022/03/04 01:43:43;;;;;;;20.33;7.50;;;-0.60;79.70;;;;;;4176024;28;20076;-73
2022/03/04 01:46:14;;;;;;;17.17;7.22;;;-0.50;79.70;;;;;;4188101;28;20031;-73
2022/03/04 01:48:35;;;;;;;15.27;6.65;;;-0.60;79.50;;;;;;4185407;28;20024;-73
2022/03/04 01:50:56;;;;;;;14.65;6.47;;;-0.60;79.40;;;;;;4190307;28;20036;-73
2022/03/04 01:53:17;;;;;;;17.23;7.50;;;-0.70;79.20;;;;;;4167013;28;20556;-73
2022/03/04 01:55:38;;;;;;;21.58;8.18;;;-0.70;79.10;;;;;;4184047;28;20068;-73
2022/03/04 01:57:59;;;;;;;20.77;7.85;;;-0.70;79.10;;;;;;4187139;28;20040;-73
2022/03/04 02:00:20;;;;;;;17.02;7.75;;;-0.70;79.30;;;;;;4185162;28;20445;-73
2022/03/04 02:02:42;;;;;;;16.33;7.20;;;-0.80;79.40;;;;;;4188662;28;20524;-73
2022/03/04 02:05:03;;;;;;;22.08;7.57;;;-0.80;79.60;;;;;;4188242;28;20035;-73
2022/03/04 02:07:24;;;;;;;22.52;8.30;;;-0.80;79.50;;;;;;4184472;28;20501;-73
2022/03/04 02:09:45;;;;;;;19.80;8.05;;;-0.80;79.30;;;;;;4182995;28;20021;-73
2022/03/04 02:12:06;;;;;;;26.25;8.20;;;-0.80;79.20;;;;;;4183579;28;20029;-73
2022/03/04 02:14:27;;;;;;;19.42;7.75;;;-0.90;79.00;;;;;;4184444;28;20029;-73
2022/03/04 02:16:52;;;;;;;19.23;8.45;;;-0.90;79.10;;;;;;4183140;28;20039;-73
2022/03/04 02:19:13;;;;;;;21.58;8.23;;;-0.90;79.30;;;;;;4185496;28;20044;-73
2022/03/04 02:21:34;;;;;;;15.75;6.93;;;-0.90;79.30;;;;;;4187924;28;20051;-73
2022/03/04 02:23:55;;;;;;;15.38;7.03;;;-1.00;79.10;;;;;;4186771;28;20041;-73
2022/03/04 02:26:16;;;;;;;19.90;7.40;;;-1.00;78.90;;;;;;4186763;28;20020;-73
2022/03/04 02:28:37;;;;;;;18.05;7.78;;;-1.10;78.50;;;;;;4189649;28;20747;-73
2022/03/04 02:30:58;;;;;;;17.27;7.60;;;-1.10;78.30;;;;;;4183422;28;20033;-73
2022/03/04 02:33:19;;;;;;;17.08;6.80;;;-1.20;78.00;;;;;;4185394;28;20585;-73
2022/03/04 02:35:41;;;;;;;14.07;6.70;;;-1.30;77.70;;;;;;4188802;28;20580;-74
2022/03/04 02:38:02;;;;;;;17.42;6.88;;;-1.40;77.50;;;;;;4184083;28;20047;-73
2022/03/04 02:40:24;;;;;;;14.70;6.93;;;-1.40;77.60;;;;;;4185864;28;20110;-74
2022/03/04 02:42:45;;;;;;;16.83;6.80;;;-1.50;77.60;;;;;;4185309;28;20064;-73
2022/03/04 02:45:06;;;;;;;18.50;7.18;;;-1.60;77.50;;;;;;4188699;28;20059;-73
2022/03/04 02:47:27;;;;;;;17.75;7.22;;;-1.60;77.60;;;;;;4185462;28;20040;-73
2022/03/04 02:49:48;;;;;;;15.05;6.55;;;-1.70;77.50;;;;;;4185716;28;20037;-73
2022/03/04 02:52:08;;;;;;;18.45;7.43;;;-1.80;77.50;;;;;;4191541;28;20025;-73
2022/03/04 02:54:29;;;;;;;19.80;6.93;;;-1.90;77.50;;;;;;4182495;28;20032;-73
2022/03/04 02:56:50;;;;;;;16.75;7.20;;;-1.90;77.50;;;;;;4183654;28;20045;-74
2022/03/04 02:59:11;;;;;;;13.68;6.90;;;-2.00;77.60;;;;;;4184131;28;20064;-73
2022/03/04 03:01:32;;;;;;;18.13;7.60;;;-2.10;77.60;;;;;;4186170;28;20029;-73
2022/03/04 03:03:53;;;;;;;19.55;8.60;;;-2.10;77.70;;;;;;4186546;28;20087;-73
2022/03/04 03:06:14;;;;;;;18.35;7.30;;;-2.20;77.90;;;;;;4186519;28;20658;-73
2022/03/04 03:08:35;;;;;;;19.23;7.07;;;-2.20;78.00;;;;;;4171648;28;20025;-74
2022/03/04 03:10:56;;;;;;;16.65;6.88;;;-2.20;78.30;;;;;;4186973;28;20029;-74
2022/03/04 03:13:17;;;;;;;16.23;6.95;;;-2.20;78.50;;;;;;4183026;28;20074;-73
2022/03/04 03:15:37;;;;;;;15.95;6.80;;;-2.20;78.70;;;;;;4185354;28;20082;-73
2022/03/04 03:17:58;;;;;;;16.35;7.10;;;-2.20;78.70;;;;;;4184251;28;20166;-73
2022/03/04 03:20:19;;;;;;;14.98;7.00;;;-2.20;78.70;;;;;;4181484;28;20793;-73
2022/03/04 03:22:40;;;;;;;18.92;7.80;;;-2.30;78.50;;;;;;4170461;28;20045;-73
2022/03/04 03:25:01;;;;;;;18.95;7.35;;;-2.30;78.40;;;;;;4182626;28;20119;-73
2022/03/04 03:27:22;;;;;;;17.63;7.57;;;-2.30;78.40;;;;;;4181729;28;20040;-73
2022/03/04 03:29:43;;;;;;;16.60;7.20;;;-2.30;78.40;;;;;;4183422;28;20036;-73
2022/03/04 03:32:04;;;;;;;16.35;7.38;;;-2.40;78.40;;;;;;4182507;28;20116;-73
2022/03/04 03:34:25;;;;;;;20.05;7.72;;;-2.40;78.40;;;;;;4183463;28;20107;-73
2022/03/04 03:36:46;;;;;;;19.83;8.25;;;-2.40;78.40;;;;;;4196657;28;20479;-73
2022/03/04 03:39:10;;;;;;;20.48;8.80;;;-2.50;78.30;;;;;;4183742;28;20061;-73
2022/03/04 03:41:31;;;;;;;22.27;7.68;;;-2.50;78.40;;;;;;4187494;28;20448;-73
2022/03/04 03:43:53;;;;;;;19.08;7.80;;;-2.60;78.50;;;;;;4185961;28;20028;-73
2022/03/04 03:46:14;;;;;;;19.83;8.23;;;-2.60;78.60;;;;;;4187382;28;20123;-73
2022/03/04 03:48:39;;;;;;;23.48;8.70;;;-2.60;78.70;;;;;;4184699;28;20188;-73
2022/03/04 03:51:00;;;;;;;20.73;8.45;;;-2.60;78.80;;;;;;4180334;28;20040;-73
2022/03/04 03:53:21;;;;;;;20.77;8.13;;;-2.60;78.90;;;;;;4183013;28;20056;-73
2022/03/04 03:55:42;;;;;;;19.60;7.50;;;-2.60;79.10;;;;;;4181080;28;20478;-72
2022/03/04 03:58:02;;;;;;;20.02;7.47;;;-2.60;79.30;;;;;;4185127;28;20024;-73
2022/03/04 04:00:23;;;;;;;14.50;6.93;;;-2.60;79.40;;;;;;4183770;28;20040;-73
2022/03/04 04:02:44;;;;;;;22.25;7.47;;;-2.60;79.40;;;;;;4182173;28;20072;-73
2022/03/04 04:05:07;;;;;;;18.27;7.85;;;-2.60;79.20;;;;;;4184961;28;20371;-73
2022/03/04 04:07:28;;;;;;;22.10;8.38;;;-2.60;79.10;;;;;;4181294;28;20035;-73
2022/03/04 04:09:49;;;;;;;24.83;8.95;;;-2.60;79.10;;;;;;4188659;28;20485;-73
2022/03/04 04:12:10;;;;;;;20.52;8.25;;;-2.60;79.10;;;;;;4181681;28;20232;-73
2022/03/04 04:14:31;;;;;;;21.30;8.45;;;-2.60;79.10;;;;;;4185788;28;20033;-73
2022/03/04 04:16:52;;;;;;;22.77;8.15;;;-2.60;79.00;;;;;;4185174;28;21912;-73
2022/03/04 04:19:13;;;;;;;24.20;8.68;;;-2.70;78.90;;;;;;4184971;28;20533;-73
2022/03/04 04:21:34;;;;;;;23.50;8.60;;;-2.70;78.90;;;;;;4189419;28;20035;-74
2022/03/04 04:23:55;;;;;;;21.90;8.75;;;-2.70;78.90;;;;;;4188927;28;20040;-73
2022/03/04 04:26:16;;;;;;;21.77;8.27;;;-2.70;78.90;;;;;;4186979;28;20040;-73
2022/03/04 04:28:37;;;;;;;26.48;9.40;;;-2.70;78.80;;;;;;4191827;28;20402;-73
2022/03/04 04:30:58;;;;;;;28.42;8.63;;;-2.70;78.70;;;;;;4187996;28;20066;-73
2022/03/04 04:33:19;;;;;;;29.20;8.95;;;-2.80;78.60;;;;;;4190592;28;20035;-73
2022/03/04 04:35:39;;;;;;;22.73;9.15;;;-2.80;78.60;;;;;;4190150;28;20055;-73
2022/03/04 04:38:00;;;;;;;32.60;10.98;;;-2.80;78.60;;;;;;4191713;28;21991;-73
2022/03/04 04:40:21;;;;;;;53.03;12.00;;;-2.80;78.50;;;;;;4191345;28;20040;-73
2022/03/04 04:42:42;;;;;;;55.13;13.60;;;-2.80;78.50;;;;;;4176269;28;20548;-73
2022/03/04 04:45:04;;;;;;;49.83;15.02;;;-2.80;78.50;;;;;;4188591;28;20033;-73
2022/03/04 04:47:25;;;;;;;97.60;16.00;;;-2.80;78.50;;;;;;4185315;28;20043;-73
2022/03/04 04:49:45;;;;;;;123.72;17.52;;;-2.90;78.50;;;;;;4187100;28;20029;-72
2022/03/04 04:52:06;;;;;;;113.03;17.00;;;-2.90;78.40;;;;;;4188745;28;20069;-73
2022/03/04 04:54:27;;;;;;;64.78;17.35;;;-2.90;78.50;;;;;;4168386;28;20402;-72
2022/03/04 04:56:48;;;;;;;137.77;20.48;;;-3.00;78.50;;;;;;4187436;28;20037;-73
2022/03/04 04:59:10;;;;;;;104.70;17.17;;;-3.00;78.60;;;;;;4188013;28;20025;-73
2022/03/04 05:01:31;;;;;;;43.40;15.63;;;-3.00;78.70;;;;;;4186110;28;20032;-73
2022/03/04 05:03:52;;;;;;;92.68;16.48;;;-3.10;78.70;;;;;;4186979;28;20127;-73
2022/03/04 05:06:13;;;;;;;44.08;15.35;;;-3.10;78.80;;;;;;4186033;28;20028;-72
2022/03/04 05:08:34;;;;;;;76.10;13.23;;;-3.10;78.90;;;;;;4174408;28;20037;-74
2022/03/04 05:10:58;;;;;;;54.63;13.73;;;-3.10;78.90;;;;;;4189116;28;20401;-73
2022/03/04 05:13:18;;;;;;;41.58;14.40;;;-3.10;78.90;;;;;;4189805;28;20041;-73
2022/03/04 05:15:41;;;;;;;41.00;14.68;;;-3.10;79.00;;;;;;4190079;28;20059;-73
2022/03/04 05:18:02;;;;;;;43.83;14.60;;;-3.10;79.10;;;;;;4175117;28;20143;-73
2022/03/04 05:20:22;;;;;;;44.03;14.90;;;-3.10;79.10;;;;;;4187814;28;20129;-73
2022/03/04 05:22:44;;;;;;;38.83;13.27;;;-3.10;79.00;;;;;;4190406;28;20055;-72
2022/03/04 05:25:07;;;;;;;40.63;14.35;;;-3.10;78.90;;;;;;4189107;28;20104;-73
2022/03/04 05:27:27;;;;;;;42.50;15.23;;;-3.10;78.80;;;;;;4191305;28;20397;-73
2022/03/04 05:29:48;;;;;;;45.97;15.30;;;-3.10;78.70;;;;;;4187864;28;21055;-72
2022/03/04 05:32:09;;;;;;;36.03;13.40;;;-3.10;78.60;;;;;;4187868;28;20062;-73
2022/03/04 05:34:30;;;;;;;35.47;13.35;;;-3.20;78.50;;;;;;4174875;28;20029;-73
2022/03/04 05:36:51;;;;;;;46.58;14.15;;;-3.20;78.40;;;;;;4189436;28;20116;-73
2022/03/04 05:39:12;;;;;;;38.83;13.23;;;-3.20;78.30;;;;;;4186771;28;20059;-73
2022/03/04 05:41:34;;;;;;;48.13;15.60;;;-3.30;78.30;;;;;;4188772;28;20040;-73
2022/03/04 05:43:55;;;;;;;60.55;15.63;;;-3.30;78.30;;;;;;4188687;28;20119;-73
2022/03/04 05:46:16;;;;;;;64.20;15.80;;;-3.30;78.50;;;;;;4173040;28;20114;-72
2022/03/04 05:48:37;;;;;;;66.32;16.50;;;-3.30;78.50;;;;;;4174051;28;20028;-73
2022/03/04 05:50:58;;;;;;;60.97;17.67;;;-3.30;78.50;;;;;;4188511;28;20063;-73
2022/03/04 05:53:19;;;;;;;59.88;17.50;;;-3.30;78.60;;;;;;4191235;28;20108;-73
2022/03/04 05:55:40;;;;;;;93.60;16.20;;;-3.30;78.70;;;;;;4185197;28;20039;-72
2022/03/04 05:58:00;;;;;;;86.88;17.50;;;-3.30;78.70;;;;;;4187431;28;20064;-72
2022/03/04 06:00:21;;;;;;;69.22;15.68;;;-3.30;78.70;;;;;;4180702;28;20043;-72
2022/03/04 06:02:42;;;;;;;60.60;16.40;;;-3.30;78.70;;;;;;4186341;28;20512;-73
2022/03/04 06:05:03;;;;;;;80.22;18.40;;;-3.30;78.80;;;;;;4187436;28;20032;-73
2022/03/04 06:07:24;;;;;;;97.50;16.77;;;-3.30;78.80;;;;;;4189200;28;20073;-73
2022/03/04 06:09:45;;;;;;;87.03;16.42;;;-3.30;78.90;;;;;;4190423;28;20028;-73
2022/03/04 06:12:06;;;;;;;87.03;16.30;;;-3.20;79.00;;;;;;4182563;28;20044;-73
2022/03/04 06:14:27;;;;;;;102.90;18.55;;;-3.20;79.10;;;;;;4188235;28;20024;-73
2022/03/04 06:16:48;;;;;;;45.17;12.93;;;-3.20;79.20;;;;;;4187001;28;20036;-73
2022/03/04 06:19:09;;;;;;;97.38;12.27;;;-3.20;79.20;;;;;;4188973;28;20082;-73
2022/03/04 06:21:30;;;;;;;74.90;12.48;;;-3.20;79.40;;;;;;4175167;28;20056;-73
2022/03/04 06:23:51;;;;;;;83.70;14.68;;;-3.10;79.70;;;;;;4188191;28;20055;-73
2022/03/04 06:26:12;;;;;;;97.55;12.82;;;-3.10;79.90;;;;;;4170479;28;20959;-73
2022/03/04 06:28:33;;;;;;;54.38;11.18;;;-3.00;80.10;;;;;;4181475;28;20044;-73
2022/03/04 06:30:54;;;;;;;23.52;8.38;;;-3.00;80.40;;;;;;4188047;28;20042;-73
2022/03/04 06:33:30;;;;;;;23.35;9.68;;;-2.90;80.60;;;;;;4189932;28;20028;-73
2022/03/04 06:35:51;;;;;;;60.38;10.00;;;-2.80;80.80;;;;;;4187482;28;20033;-73
2022/03/04 06:38:12;;;;;;;55.90;11.10;;;-2.70;81.00;;;;;;4187305;28;20043;-73
2022/03/04 06:40:33;;;;;;;44.00;10.77;;;-2.60;81.20;;;;;;4186578;28;20192;-73
2022/03/04 06:42:54;;;;;;;167.90;14.80;;;-2.50;81.40;;;;;;4189792;28;20426;-73
2022/03/04 06:45:15;;;;;;;40.78;11.30;;;-2.40;81.50;;;;;;4191240;28;20029;-73
2022/03/04 06:47:36;;;;;;;33.40;11.65;;;-2.30;82.40;;;;;;4185774;28;20074;-73
2022/03/04 06:49:56;;;;;;;125.93;14.65;;;-2.10;81.90;;;;;;4187864;28;20024;-73
2022/03/04 06:52:17;;;;;;;119.22;15.93;;;-2.10;81.90;;;;;;4188424;28;20370;-73
2022/03/04 06:54:39;;;;;;;84.38;14.68;;;-1.90;82.10;;;;;;4187827;28;20489;-73
2022/03/04 06:57:00;;;;;;;44.78;13.50;;;-1.80;82.20;;;;;;4185581;28;20041;-73
2022/03/04 06:59:21;;;;;;;35.13;12.90;;;-1.70;82.30;;;;;;4183943;28;20478;-73
2022/03/04 07:01:42;;;;;;;39.35;14.15;;;-1.60;82.30;;;;;;4184105;28;20044;-73
2022/03/04 07:04:04;;;;;;;55.88;15.13;;;-1.50;82.30;;;;;;4186993;28;20077;-73
2022/03/04 07:06:24;;;;;;;49.53;14.55;;;-1.40;82.30;;;;;;4183875;28;20519;-73
2022/03/04 07:08:45;;;;;;;36.45;13.10;;;-1.30;82.20;;;;;;4186724;28;20037;-73
2022/03/04 07:11:06;;;;;;;45.72;14.43;;;-1.20;82.20;;;;;;4187632;28;20040;-73
2022/03/04 07:13:27;;;;;;;40.75;13.65;;;-1.20;82.10;;;;;;4183754;28;20055;-73
2022/03/04 07:15:48;;;;;;;43.25;14.77;;;-1.00;82.10;;;;;;4187932;28;20028;-73
2022/03/04 07:18:09;;;;;;;51.38;14.52;;;-1.00;82.00;;;;;;4186435;28;20032;-73
2022/03/04 07:20:30;;;;;;;50.80;15.50;;;-0.90;82.80;;;;;;4184111;28;20037;-73
2022/03/04 07:22:51;;;;;;;38.75;12.77;;;-0.80;82.10;;;;;;4181709;28;20041;-73
2022/03/04 07:25:12;;;;;;;48.75;14.52;;;-0.70;82.10;;;;;;4187016;28;20032;-73
2022/03/04 07:27:34;;;;;;;40.22;14.02;;;-0.70;82.10;;;;;;4170004;28;20592;-73
2022/03/04 07:29:55;;;;;;;50.40;15.88;;;-0.60;82.20;;;;;;4173367;28;20044;-73
2022/03/04 07:32:15;;;;;;;52.50;15.30;;;-0.50;82.20;;;;;;4185844;28;20028;-73
2022/03/04 07:34:36;;;;;;;40.95;11.77;;;-0.40;82.30;;;;;;4161606;28;20085;-73
2022/03/04 07:36:57;;;;;;;37.25;14.77;;;-0.30;82.30;;;;;;4184810;28;20028;-73
2022/03/04 07:39:19;;;;;;;40.85;14.77;;;-0.20;82.30;;;;;;4186219;28;20033;-73
2022/03/04 07:41:40;;;;;;;40.28;14.52;;;-0.20;82.30;;;;;;4186021;28;20029;-73
2022/03/04 07:44:01;;;;;;;51.28;14.32;;;-0.10;82.40;;;;;;4186747;28;20040;-73
2022/03/04 07:46:22;;;;;;;63.00;13.40;;;0.00;82.40;;;;;;4188513;28;20029;-73
2022/03/04 07:48:43;;;;;;;65.65;12.10;;;0.10;82.50;;;;;;4187611;28;20081;-73
2022/03/04 07:51:05;;;;;;;116.35;14.32;;;0.20;82.50;;;;;;4190019;28;20119;-73
2022/03/04 07:53:26;;;;;;;80.90;13.65;;;0.30;82.50;;;;;;4185289;28;20493;-74
2022/03/04 07:55:47;;;;;;;88.18;11.98;;;0.40;82.50;;;;;;4188178;28;20033;-73
2022/03/04 07:58:07;;;;;;;80.35;10.30;;;0.40;82.40;;;;;;4188778;28;20044;-73
2022/03/04 08:00:28;;;;;;;97.07;10.27;;;0.50;82.40;;;;;;4167258;28;20059;-74
2022/03/04 08:02:49;;;;;;;54.67;10.25;;;0.50;82.40;;;;;;4186562;28;20097;-73
2022/03/04 08:05:10;;;;;;;81.05;10.77;;;0.60;82.50;;;;;;4187731;28;20021;-73
2022/03/04 08:07:31;;;;;;;96.28;10.85;;;0.60;82.50;;;;;;4182578;28;20041;-73
2022/03/04 08:09:52;;;;;;;124.80;9.90;;;0.70;82.60;;;;;;4184216;28;20091;-73
2022/03/04 08:12:13;;;;;;;101.47;10.85;;;0.80;82.70;;;;;;4184628;28;20029;-73
2022/03/04 08:14:34;;;;;;;113.82;10.00;;;0.80;82.70;;;;;;4185523;28;20040;-73
2022/03/04 08:16:55;;;;;;;114.88;9.07;;;0.90;82.80;;;;;;4186215;28;20458;-73
2022/03/04 08:19:16;;;;;;;102.60;10.63;;;1.00;82.90;;;;;;4171123;28;20245;-73
2022/03/04 08:21:37;;;;;;;128.68;9.02;;;1.00;82.80;;;;;;4182604;28;20037;-73
2022/03/04 08:23:58;;;;;;;159.32;8.18;;;1.10;82.80;;;;;;4188337;28;20119;-73
2022/03/04 08:26:19;;;;;;;171.02;9.65;;;1.10;82.80;;;;;;4188911;28;20032;-73
2022/03/04 08:28:40;;;;;;;112.07;8.20;;;1.20;82.90;;;;;;4185909;28;20044;-73
2022/03/04 08:31:03;;;;;;;69.93;7.57;;;1.20;82.80;;;;;;4184656;28;20025;-73
2022/03/04 08:33:24;;;;;;;111.85;9.25;;;1.30;83.00;;;;;;4184024;28;20098;-73
2022/03/04 08:35:45;;;;;;;98.60;8.13;;;1.30;82.90;;;;;;4187102;28;20112;-73
2022/03/04 08:38:06;;;;;;;127.32;8.68;;;1.40;83.00;;;;;;4184998;28;20473;-73
2022/03/04 08:40:27;;;;;;;96.07;7.85;;;1.40;83.00;;;;;;4186510;28;20131;-73
2022/03/04 08:42:48;;;;;;;152.52;8.40;;;1.40;83.00;;;;;;4186071;28;20103;-73
2022/03/04 08:45:09;;;;;;;105.32;8.57;;;1.50;83.10;;;;;;4185460;28;20056;-73
2022/03/04 08:47:30;;;;;;;129.40;7.68;;;1.60;83.10;;;;;;4187632;28;20037;-73
2022/03/04 08:49:51;;;;;;;82.28;7.03;;;1.60;83.20;;;;;;4179580;28;20124;-73
2022/03/04 08:52:12;;;;;;;73.85;6.70;;;1.70;83.20;;;;;;4186320;28;20044;-74
2022/03/04 08:54:33;;;;;;;62.28;7.22;;;1.70;83.20;;;;;;4189367;28;20104;-73
2022/03/04 08:56:54;;;;;;;82.75;9.30;;;1.80;83.30;;;;;;4190550;28;20036;-74
2022/03/04 08:59:15;;;;;;;103.57;8.43;;;1.90;83.30;;;;;;4187592;28;20152;-73
2022/03/04 09:01:36;;;;;;;104.00;9.18;;;1.90;83.10;;;;;;4188457;28;20553;-74
2022/03/04 09:03:57;;;;;;;91.05;7.50;;;1.90;82.90;;;;;;4188578;28;20043;-73
2022/03/04 09:06:18;;;;;;;93.30;8.02;;;2.00;82.70;;;;;;4188989;28;20024;-74
2022/03/04 09:08:38;;;;;;;93.72;6.80;;;2.00;82.70;;;;;;4177636;28;20080;-73
2022/03/04 09:10:59;;;;;;;78.65;7.40;;;2.00;82.70;;;;;;4188349;28;20041;-73
2022/03/04 09:13:20;;;;;;;100.40;6.90;;;2.10;82.90;;;;;;4189603;28;20421;-73
2022/03/04 09:15:41;;;;;;;141.80;9.27;;;2.10;83.00;;;;;;4167208;28;20634;-73
2022/03/04 09:18:02;;;;;;;52.10;6.75;;;2.20;83.00;;;;;;4188598;28;20071;-73
2022/03/04 09:20:23;;;;;;;63.22;6.35;;;2.20;82.90;;;;;;4188405;28;20071;-73
2022/03/04 09:22:44;;;;;;;101.68;7.90;;;2.20;83.40;;;;;;4190003;28;20036;-73
2022/03/04 09:25:05;;;;;;;68.00;5.82;;;2.30;82.80;;;;;;4189127;28;20036;-73
2022/03/04 09:27:26;;;;;;;140.07;7.65;;;2.30;82.70;;;;;;4188917;28;20036;-73
2022/03/04 09:29:47;;;;;;;75.85;6.53;;;2.40;82.80;;;;;;4180802;28;20021;-73
2022/03/04 09:32:08;;;;;;;123.07;7.93;;;2.40;82.50;;;;;;4190200;28;20414;-73
2022/03/04 09:34:29;;;;;;;179.48;8.05;;;2.40;82.30;;;;;;4188340;28;20436;-73
2022/03/04 09:36:50;;;;;;;177.88;8.10;;;2.40;82.10;;;;;;4175289;28;20033;-73
2022/03/04 09:39:11;;;;;;;87.43;6.38;;;2.40;81.70;;;;;;4190773;28;20039;-73
2022/03/04 09:41:32;;;;;;;88.60;6.10;;;2.40;81.40;;;;;;4164742;28;20510;-73
2022/03/04 09:43:54;;;;;;;81.63;6.07;;;2.40;81.20;;;;;;4187659;28;20072;-73
2022/03/04 09:46:14;;;;;;;121.65;5.85;;;2.40;81.90;;;;;;4188944;28;20516;-73
2022/03/04 09:48:40;;;;;;;57.35;5.55;;;2.40;81.10;;;;;;4187939;28;20037;-73
2022/03/04 09:51:00;;;;;;;101.75;6.22;;;2.40;81.00;;;;;;4186649;28;20030;-72
2022/03/04 09:53:21;;;;;;;51.75;6.28;;;2.30;80.70;;;;;;4179464;28;20529;-73
2022/03/04 09:55:42;;;;;;;71.72;6.88;;;2.30;80.50;;;;;;4192629;28;20029;-73
2022/03/04 09:58:08;;;;;;;68.70;6.70;;;2.20;80.40;;;;;;4184334;28;20033;-73
2022/03/04 10:00:29;;;;;;;61.10;5.72;;;2.10;80.20;;;;;;4190077;28;20097;-73
2022/03/04 10:02:50;;;;;;;61.58;5.82;;;2.10;80.20;;;;;;4173940;28;20033;-73
2022/03/04 10:05:11;;;;;;;39.30;6.25;;;2.10;80.40;;;;;;4189858;28;20044;-73
2022/03/04 10:07:42;;;;;;;83.25;6.47;;;2.10;80.70;;;;;;4175380;28;20029;-73
2022/03/04 10:10:08;;;;;;;57.25;5.70;;;2.10;80.90;;;;;;4189904;28;20035;-73
2022/03/04 10:12:29;;;;;;;50.58;5.82;;;2.10;81.00;;;;;;4193180;28;20039;-73
2022/03/04 10:15:04;;;;;;;39.75;5.63;;;2.10;81.00;;;;;;4186480;28;20038;-73
2022/03/04 10:17:25;;;;;;;37.35;5.68;;;2.10;81.00;;;;;;4188032;28;20032;-73
2022/03/04 10:19:53;;;;;;;27.83;5.72;;;2.10;81.20;;;;;;4189197;28;20141;-73
2022/03/04 10:22:14;;;;;;;14.55;5.70;;;2.10;81.10;;;;;;4189454;28;20048;-73
2022/03/04 10:24:37;;;;;;;18.67;5.57;;;2.20;82.00;;;;;;4184879;28;20044;-74
2022/03/04 10:27:01;;;;;;;17.08;5.22;;;2.20;81.50;;;;;;4182621;28;20075;-73
2022/03/04 10:29:23;;;;;;;15.02;5.63;;;2.20;81.60;;;;;;4184213;28;20028;-73
2022/03/04 10:32:19;;;;;;;18.00;4.97;;;2.30;81.70;;;;;;4188631;28;20029;-73
2022/03/04 10:34:49;;;;;;;17.83;5.22;;;2.40;81.80;;;;;;4189255;28;20143;-73
2022/03/04 10:37:10;;;;;;;8.93;5.28;;;2.40;81.80;;;;;;4187727;28;20375;-73
2022/03/04 10:39:32;;;;;;;8.50;4.85;;;2.40;81.60;;;;;;4187584;28;20036;-73
2022/03/04 10:41:53;;;;;;;10.00;4.90;;;2.50;81.80;;;;;;4182703;28;20040;-73
2022/03/04 10:44:24;;;;;;;8.70;4.72;;;2.60;81.90;;;;;;4192554;28;20024;-73
2022/03/04 10:46:56;;;;;;;7.05;4.25;;;2.60;81.80;;;;;;4189188;28;20024;-73
2022/03/04 10:49:25;;;;;;;7.75;4.22;;;2.60;81.50;;;;;;4185934;28;20484;-73
2022/03/04 10:51:46;;;;;;;8.55;4.45;;;2.60;81.00;;;;;;4171223;28;20036;-73
2022/03/04 10:54:15;;;;;;;8.15;3.90;;;2.60;80.80;;;;;;4188142;28;20076;-73
2022/03/04 10:57:08;;;;;;;6.38;3.83;;;2.70;80.80;;;;;;4194055;28;20067;-73
2022/03/04 10:59:29;;;;;;;7.30;4.05;;;2.70;80.80;;;;;;4160398;28;20035;-73
2022/03/04 11:01:51;;;;;;;8.25;3.90;;;2.70;80.80;;;;;;4182278;28;20470;-73
2022/03/04 11:04:17;;;;;;;8.10;4.10;;;2.80;80.90;;;;;;4186826;28;20068;-73
2022/03/04 11:06:38;;;;;;;9.13;4.25;;;2.80;80.90;;;;;;4187462;28;20044;-73
2022/03/04 11:08:59;;;;;;;6.90;3.63;;;2.80;80.90;;;;;;4171941;28;20084;-73
2022/03/04 11:11:20;;;;;;;7.13;4.32;;;2.90;81.00;;;;;;4173713;28;20052;-72
2022/03/04 11:13:42;;;;;;;6.10;3.38;;;2.90;80.80;;;;;;4185044;28;20039;-73
2022/03/04 11:16:04;;;;;;;8.52;4.22;;;3.00;80.80;;;;;;4183798;28;20055;-73
2022/03/04 11:18:25;;;;;;;8.50;4.38;;;3.00;80.70;;;;;;4189518;28;20029;-73
2022/03/04 11:20:50;;;;;;;8.73;4.97;;;3.10;80.70;;;;;;4184028;28;20409;-73
2022/03/04 11:23:19;;;;;;;8.38;4.53;;;3.00;80.50;;;;;;4182186;28;20044;-73
2022/03/04 11:25:41;;;;;;;11.15;4.40;;;3.10;80.40;;;;;;4184706;28;20382;-72
2022/03/04 11:28:08;;;;;;;6.88;3.80;;;3.20;80.50;;;;;;4171801;28;20106;-73
2022/03/04 11:30:46;;;;;;;8.50;4.03;;;3.20;80.50;;;;;;4186032;28;20060;-73
2022/03/04 11:33:31;;;;;;;7.38;4.13;;;3.20;80.30;;;;;;4175960;28;20032;-73
2022/03/04 11:35:59;;;;;;;6.57;3.70;;;3.30;80.10;;;;;;4187287;28;20401;-73
2022/03/04 11:38:48;;;;;;;10.52;3.95;;;3.30;80.10;;;;;;4186498;28;20644;-73
2022/03/04 11:41:09;;;;;;;8.00;3.72;;;3.30;80.00;;;;;;4186845;28;20066;-73
2022/03/04 11:43:52;;;;;;;7.13;3.22;;;3.40;79.90;;;;;;4184851;28;20044;-73
2022/03/04 11:46:23;;;;;;;7.38;3.55;;;3.40;79.80;;;;;;4182865;28;20111;-73
2022/03/04 11:48:45;;;;;;;7.38;3.58;;;3.40;79.70;;;;;;4182018;28;20120;-73
2022/03/04 11:51:17;;;;;;;6.50;3.10;;;3.50;79.80;;;;;;4173927;28;20513;-73
2022/03/04 11:53:41;;;;;;;6.90;3.10;;;3.60;79.60;;;;;;4184793;28;20032;-73
2022/03/04 11:56:10;;;;;;;6.60;2.60;;;3.60;79.60;;;;;;4184010;28;20063;-73
2022/03/04 11:58:56;;;;;;;6.40;3.00;;;3.60;79.40;;;;;;4183226;28;20059;-73
2022/03/04 12:01:17;;;;;;;8.25;2.63;;;3.70;79.30;;;;;;4182574;28;20044;-73
2022/03/04 12:04:22;;;;;;;7.03;2.50;;;3.70;79.20;;;;;;4187288;28;20510;-72
2022/03/04 12:06:43;;;;;;;7.13;2.67;;;3.80;79.30;;;;;;4122423;28;20070;-73
2022/03/04 12:09:29;;;;;;;5.88;2.20;;;3.90;79.70;;;;;;4115098;28;20070;-72
2022/03/04 12:12:09;;;;;;;7.88;2.83;;;4.00;79.60;;;;;;4162979;28;20033;-75